Main page
METAR-TAF:

METAR-TAF

Airports :

Karpathos Island National Airport

Karpathos, Greece

latitude: 35-24-51N, longitude: 027-08-54E, elevation: 6 m

Current weather observation

The report was made 40 minutes ago, at 12:20 UTC
Wind 29 kt from the Northwest
Temperature 28°C
Humidity 55%
Pressure 1009 hPa
Visibility 10 km or more
no clouds below 1500 m and no cumulonimbus

METAR: LGKP 221220Z 32029KT CAVOK 28/18 Q1009

Time: 16:00 (13:00 UTC)

Forecast

The report was made 2 hours and 0 minutes ago, at 11:00 UTC
Forecast valid from 22 at 12 UTC to 22 at 21 UTC
Wind 20 kt from the Northwest with gusts up to 30 kt
Visibility 10 km or more
Few clouds at a height of 2000 ft

TAF: LGKP 221100Z 2212/2221 31020G30KT 9999 FEW020

Weather observations and forecasts of more than 4000 airports (METAR and TAF reports).

The available stations are represented by yellow and red dots on the map.

Hover mouse over dot to see the name of the station.

Then click to see weather observations and forecasts.

To change the map : click on the green buttons with a black cross to zoom in, on the green button with a dash to zoom out, or on the green arrows for adjacent maps.


METAR-TAF: